Time;durP1;ratioP1;P1;durP2;ratioP2;P2;SDS_P1;SDS_P2;PMS_P1;PMS_P2;Temp;Humidity;BMP_temperature;BMP_pressure;BME280_temperature;BME280_humidity;BME280_pressure;Samples;Min_cycle;Max_cycle;Signal;HPM_P1;HPM_P2
2023/12/22 00:01:17;;;;;;;8.35;1.75;;;;;;;6.25;72.41;99378.38;7391536;19;20015;-67
2023/12/22 00:03:46;;;;;;;9.15;1.52;;;;;;;6.19;72.65;99370.16;7391780;19;20028;-67
2023/12/22 00:06:13;;;;;;;10.38;1.48;;;;;;;6.05;72.61;99360.69;7392089;19;20019;-67
2023/12/22 00:08:41;;;;;;;12.07;1.90;;;;;;;6.25;73.08;99370.50;7388368;19;20396;-67
2023/12/22 00:11:09;;;;;;;10.45;2.08;;;;;;;6.26;72.90;99377.44;7390111;19;20030;-67
2023/12/22 00:13:37;;;;;;;8.82;1.98;;;;;;;6.15;73.54;99374.81;7392112;19;20042;-67
2023/12/22 00:16:06;;;;;;;9.82;1.98;;;;;;;6.08;73.89;99381.50;7391435;19;20025;-67
2023/12/22 00:18:34;;;;;;;9.73;1.35;;;;;;;6.08;74.01;99386.75;7390593;19;20030;-67
2023/12/22 00:21:02;;;;;;;9.40;1.75;;;;;;;6.10;74.17;99383.06;7395180;19;20385;-68
2023/12/22 00:23:30;;;;;;;10.30;1.85;;;;;;;6.12;73.73;99393.44;7395660;19;20043;-67
2023/12/22 00:25:57;;;;;;;9.70;1.98;;;;;;;6.07;73.73;99398.22;7391853;19;20018;-67
2023/12/22 00:28:25;;;;;;;13.65;2.30;;;;;;;6.00;73.96;99384.72;7388949;19;20011;-67
2023/12/22 00:30:53;;;;;;;10.18;2.78;;;;;;;6.12;73.54;99384.72;7389276;19;20039;-67
2023/12/22 00:33:21;;;;;;;9.82;2.40;;;;;;;6.15;73.18;99382.69;7390603;19;20026;-67
2023/12/22 00:35:49;;;;;;;9.30;2.13;;;;;;;6.15;71.93;99390.56;7390525;19;20019;-67
2023/12/22 00:38:17;;;;;;;9.40;2.08;;;;;;;6.19;71.76;99385.91;7389572;19;20043;-67
2023/12/22 00:40:45;;;;;;;10.60;2.55;;;;;;;6.23;71.53;99385.56;7390307;19;20015;-67
2023/12/22 00:43:13;;;;;;;11.43;1.85;;;;;;;6.18;70.47;99385.09;7390854;19;20141;-67
2023/12/22 00:45:41;;;;;;;9.38;1.83;;;;;;;6.13;70.22;99395.09;7390705;19;20736;-67
2023/12/22 00:48:10;;;;;;;11.82;2.47;;;;;;;6.17;70.62;99390.44;7389601;19;20074;-67
2023/12/22 00:50:38;;;;;;;12.27;2.45;;;;;;;6.19;70.56;99401.69;7390241;19;20022;-67
2023/12/22 00:53:06;;;;;;;10.40;2.03;;;;;;;6.23;70.69;99403.97;7389492;19;20040;-67
2023/12/22 00:55:33;;;;;;;11.38;2.22;;;;;;;6.17;70.97;99406.22;7389898;19;20044;-67
2023/12/22 00:58:01;;;;;;;13.43;2.65;;;;;;;6.12;71.06;99405.75;7390381;19;20022;-67
2023/12/22 01:00:29;;;;;;;17.67;3.25;;;;;;;6.16;71.73;99420.31;7390554;19;20491;-67
2023/12/22 01:02:57;;;;;;;14.07;2.55;;;;;;;6.11;71.21;99420.69;7389668;19;20033;-67
2023/12/22 01:05:25;;;;;;;17.70;2.80;;;;;;;6.04;71.66;99424.72;7389688;19;20051;-67
2023/12/22 01:07:53;;;;;;;10.57;2.15;;;;;;;6.10;71.82;99432.13;7389641;19;20035;-67
2023/12/22 01:10:21;;;;;;;12.20;2.50;;;;;;;6.07;72.17;99430.59;7386963;19;20030;-67
2023/12/22 01:12:49;;;;;;;11.13;2.38;;;;;;;6.01;72.86;99424.94;7389577;19;20022;-68
2023/12/22 01:15:16;;;;;;;13.88;3.03;;;;;;;5.93;72.95;99417.66;7387527;19;20125;-68
2023/12/22 01:17:44;;;;;;;10.93;2.67;;;;;;;5.89;73.24;99410.94;7388846;19;20488;-68
2023/12/22 01:20:13;;;;;;;15.90;3.03;;;;;;;5.97;73.62;99434.03;7386170;19;20491;-68
2023/12/22 01:22:41;;;;;;;11.70;2.88;;;;;;;5.96;73.43;99417.44;7389192;19;20124;-67
2023/12/22 01:25:09;;;;;;;14.43;2.90;;;;;;;5.98;73.10;99422.56;7389550;19;20133;-67
2023/12/22 01:27:36;;;;;;;11.13;2.67;;;;;;;6.05;73.23;99450.88;7387670;19;20090;-68
2023/12/22 01:30:05;;;;;;;13.63;3.00;;;;;;;6.08;72.42;99432.25;7384771;19;20018;-68
2023/12/22 01:32:35;;;;;;;13.00;3.70;;;;;;;6.13;72.92;99457.34;7385101;19;20023;-68
2023/12/22 01:35:06;;;;;;;13.02;2.17;;;;;;;6.01;72.57;99440.72;7385983;19;20022;-68
2023/12/22 01:37:35;;;;;;;9.60;2.65;;;;;;;6.04;72.32;99451.84;7389080;19;20482;-68
2023/12/22 01:40:04;;;;;;;11.05;3.00;;;;;;;6.03;72.51;99450.16;7389487;19;20023;-68
2023/12/22 01:42:32;;;;;;;10.65;2.40;;;;;;;6.06;72.46;99430.69;7395412;19;20090;-68
2023/12/22 01:45:00;;;;;;;11.88;2.45;;;;;;;5.98;72.52;99456.72;7395880;19;20511;-68
2023/12/22 01:47:29;;;;;;;12.20;2.13;;;;;;;5.98;72.68;99456.72;7395789;19;20033;-68
2023/12/22 01:49:57;;;;;;;12.02;2.40;;;;;;;5.97;72.07;99474.28;7392892;19;20036;-68
2023/12/22 01:52:26;;;;;;;9.15;1.90;;;;;;;5.94;71.19;99458.72;7395583;19;20011;-68
2023/12/22 01:54:55;;;;;;;6.63;2.05;;;;;;;6.04;71.04;99490.41;7391785;19;20026;-68
2023/12/22 01:57:23;;;;;;;13.27;2.58;;;;;;;5.97;70.75;99463.75;7396113;19;20027;-68
2023/12/22 01:59:51;;;;;;;12.30;2.50;;;;;;;6.05;70.61;99492.09;7393391;19;20043;-68
2023/12/22 02:02:19;;;;;;;13.32;2.15;;;;;;;6.08;70.68;99476.94;7395820;19;20507;-68
2023/12/22 02:04:47;;;;;;;11.57;2.40;;;;;;;6.04;71.08;99472.84;7393335;19;20019;-67
2023/12/22 02:07:15;;;;;;;8.40;2.00;;;;;;;5.94;71.30;99465.78;7392635;19;20011;-67
2023/12/22 02:09:43;;;;;;;10.45;2.40;;;;;;;5.90;71.58;99459.88;7391077;19;20014;-67
2023/12/22 02:12:11;;;;;;;9.82;2.50;;;;;;;5.81;71.03;99458.78;7393493;19;20019;-69
2023/12/22 02:14:39;;;;;;;7.75;1.90;;;;;;;5.68;71.17;99451.94;7393827;19;20031;-67
2023/12/22 02:17:15;;;;;;;8.55;2.25;;;;;;;5.61;71.24;99455.03;7394268;19;20026;-67
2023/12/22 02:19:45;;;;;;;11.20;2.83;;;;;;;5.71;70.46;99446.47;7391691;19;20090;-67
2023/12/22 02:22:13;;;;;;;9.93;2.45;;;;;;;5.84;69.88;99468.25;7394611;19;20345;-67
2023/12/22 02:24:42;;;;;;;9.23;1.90;;;;;;;5.90;70.24;99465.13;7394581;19;20018;-67
2023/12/22 02:27:22;;;;;;;9.73;2.20;;;;;;;5.95;70.58;99444.63;7394213;19;20018;-67
2023/12/22 02:29:56;;;;;;;10.18;2.25;;;;;;;5.83;73.24;99479.69;7391854;19;20125;-67
2023/12/22 02:32:29;;;;;;;11.13;2.03;;;;;;;5.76;72.40;99425.94;7394344;19;20407;-67
2023/12/22 02:34:58;;;;;;;6.25;1.90;;;;;;;5.63;72.58;99437.34;7393237;19;20022;-67
2023/12/22 02:37:29;;;;;;;9.10;2.33;;;;;;;5.64;72.59;99453.94;7394600;19;20546;-67
2023/12/22 02:39:58;;;;;;;9.63;2.42;;;;;;;5.60;73.43;99469.09;7391867;19;20379;-67
2023/12/22 02:42:29;;;;;;;9.20;2.25;;;;;;;5.56;73.67;99472.91;7394549;19;20121;-67
2023/12/22 02:44:58;;;;;;;12.05;1.88;;;;;;;5.57;74.31;99474.59;7393061;19;20022;-67
2023/12/22 02:47:32;;;;;;;13.00;2.53;;;;;;;5.53;74.71;99461.78;7394283;19;20018;-67
2023/12/22 02:50:00;;;;;;;10.43;2.10;;;;;;;5.54;74.62;99453.81;7390767;19;20427;-67
2023/12/22 02:52:29;;;;;;;8.52;2.20;;;;;;;5.52;74.28;99471.44;7393840;19;20364;-67
2023/12/22 02:54:56;;;;;;;12.43;3.05;;;;;;;5.54;74.19;99458.22;7392426;19;20031;-67
2023/12/22 02:57:24;;;;;;;11.55;2.67;;;;;;;5.52;74.21;99458.31;7393433;19;20022;-67
2023/12/22 02:59:52;;;;;;;13.57;3.05;;;;;;;5.58;74.15;99452.63;7391691;19;20022;-67
2023/12/22 03:02:20;;;;;;;15.10;3.80;;;;;;;5.66;73.31;99457.31;7393215;19;20019;-68
2023/12/22 03:04:48;;;;;;;12.13;3.20;;;;;;;5.69;73.08;99469.38;7391572;19;20538;-67
2023/12/22 03:07:16;;;;;;;15.07;3.22;;;;;;;5.63;73.44;99463.63;7391970;19;20018;-67
2023/12/22 03:09:44;;;;;;;12.30;2.60;;;;;;;5.66;72.94;99464.34;7389559;19;20078;-67
2023/12/22 03:12:12;;;;;;;11.93;2.17;;;;;;;5.69;72.91;99454.47;7393646;19;20543;-67
2023/12/22 03:14:40;;;;;;;13.77;2.58;;;;;;;5.72;72.83;99443.69;7392202;19;20106;-67
2023/12/22 03:17:09;;;;;;;16.05;2.60;;;;;;;5.78;72.38;99430.13;7392887;19;20031;-67
2023/12/22 03:19:37;;;;;;;14.25;2.42;;;;;;;5.94;71.63;99445.59;7390865;19;20040;-66
2023/12/22 03:22:05;;;;;;;12.05;2.50;;;;;;;5.97;70.76;99442.75;7393034;19;20086;-66
2023/12/22 03:24:33;;;;;;;11.80;2.58;;;;;;;6.03;70.45;99444.09;7392154;19;20018;-66
2023/12/22 03:27:01;;;;;;;13.13;2.95;;;;;;;6.10;70.27;99450.53;7392116;19;20018;-66
2023/12/22 03:29:29;;;;;;;8.88;2.42;;;;;;;5.90;71.51;99438.88;7387869;19;20094;-66
2023/12/22 03:31:56;;;;;;;12.00;2.88;;;;;;;5.82;72.40;99436.81;7390244;19;20432;-66
2023/12/22 03:34:24;;;;;;;10.65;2.53;;;;;;;5.82;72.52;99439.44;7389106;19;20014;-67
2023/12/22 03:36:52;;;;;;;12.98;2.90;;;;;;;5.80;72.21;99443.13;7391901;19;20466;-67
2023/12/22 03:39:20;;;;;;;16.20;3.60;;;;;;;5.71;72.78;99465.69;7390765;19;20026;-67
2023/12/22 03:41:48;;;;;;;12.10;2.47;;;;;;;5.61;73.11;99462.91;7390623;19;20043;-67
2023/12/22 03:44:16;;;;;;;12.40;2.50;;;;;;;5.65;73.23;99465.28;7390473;19;20026;-67
2023/12/22 03:46:44;;;;;;;10.45;2.30;;;;;;;5.58;72.94;99457.06;7391527;19;20019;-67
2023/12/22 03:49:12;;;;;;;13.82;2.35;;;;;;;5.59;73.17;99461.34;7390930;19;20104;-67
2023/12/22 03:51:41;;;;;;;13.07;2.30;;;;;;;5.62;72.94;99450.63;7391596;19;20631;-67
2023/12/22 03:54:10;;;;;;;11.55;2.00;;;;;;;5.64;72.61;99435.56;7391797;19;20039;-67
2023/12/22 03:56:37;;;;;;;12.27;2.22;;;;;;;5.61;72.69;99427.94;7392367;19;20023;-67
2023/12/22 03:59:05;;;;;;;9.88;2.08;;;;;;;5.63;72.18;99433.91;7390080;19;20328;-67
2023/12/22 04:01:33;;;;;;;11.15;2.63;;;;;;;5.67;72.01;99427.47;7390497;19;20014;-67
2023/12/22 04:04:01;;;;;;;8.38;1.73;;;;;;;5.75;71.73;99437.41;7390445;19;20018;-68
2023/12/22 04:06:29;;;;;;;9.82;1.90;;;;;;;5.82;71.27;99430.72;7391208;19;20368;-67
2023/12/22 04:08:56;;;;;;;11.32;1.98;;;;;;;5.85;71.05;99430.50;7390475;19;20043;-67
2023/12/22 04:11:24;;;;;;;8.93;2.05;;;;;;;5.97;70.36;99429.59;7391490;19;20022;-67
2023/12/22 04:13:52;;;;;;;11.60;2.20;;;;;;;6.00;70.67;99416.25;7391065;19;20018;-67
2023/12/22 04:16:20;;;;;;;14.38;3.22;;;;;;;5.97;70.65;99440.13;7389369;19;20032;-67
2023/12/22 04:18:48;;;;;;;11.68;3.25;;;;;;;6.10;70.57;99437.38;7389622;19;20046;-68
2023/12/22 04:21:19;;;;;;;17.77;3.00;;;;;;;6.09;70.25;99465.44;7388039;19;20045;-67
2023/12/22 04:23:46;;;;;;;14.32;2.55;;;;;;;6.07;71.37;99479.69;7391249;19;20015;-67
2023/12/22 04:26:14;;;;;;;11.20;2.05;;;;;;;5.98;72.03;99460.16;7391025;19;20014;-67
2023/12/22 04:28:42;;;;;;;10.02;1.80;;;;;;;5.94;72.40;99452.66;7389604;19;20090;-67
2023/12/22 04:31:10;;;;;;;12.95;1.92;;;;;;;6.00;71.98;99471.41;7390694;19;20022;-67
2023/12/22 04:33:37;;;;;;;13.60;2.13;;;;;;;5.99;72.14;99466.25;7391111;19;20035;-67
2023/12/22 04:36:06;;;;;;;17.00;2.28;;;;;;;5.92;72.55;99478.19;7389074;19;20030;-67
2023/12/22 04:38:34;;;;;;;14.80;2.28;;;;;;;5.87;73.44;99465.38;7389589;19;20486;-67
2023/12/22 04:41:02;;;;;;;11.25;1.95;;;;;;;5.92;74.24;99494.81;7390717;19;20018;-67
2023/12/22 04:43:30;;;;;;;14.52;2.20;;;;;;;5.80;74.68;99465.00;7390021;19;20022;-67
2023/12/22 04:45:58;;;;;;;15.32;3.17;;;;;;;5.75;74.31;99476.78;7388810;19;20018;-67
2023/12/22 04:48:26;;;;;;;12.65;3.28;;;;;;;5.67;74.41;99447.63;7389780;19;20022;-67
2023/12/22 04:50:54;;;;;;;16.50;3.20;;;;;;;5.64;74.78;99472.34;7390588;19;20029;-67
2023/12/22 04:53:21;;;;;;;16.83;3.70;;;;;;;5.75;74.64;99472.38;7390705;19;20011;-67
2023/12/22 04:55:49;;;;;;;19.00;3.00;;;;;;;5.76;74.23;99452.19;7387405;19;20479;-67
2023/12/22 04:58:17;;;;;;;15.02;3.08;;;;;;;5.72;74.46;99450.75;7389255;19;20155;-67
2023/12/22 05:00:45;;;;;;;18.17;3.65;;;;;;;5.73;74.46;99463.78;7389587;19;20029;-67
2023/12/22 05:03:13;;;;;;;16.42;4.07;;;;;;;5.78;74.24;99455.56;7393362;19;20014;-67
2023/12/22 05:05:41;;;;;;;16.00;4.05;;;;;;;5.96;73.03;99464.72;7389726;19;20019;-67
2023/12/22 05:08:09;;;;;;;21.98;4.05;;;;;;;5.95;72.90;99488.47;7389722;19;20022;-67
2023/12/22 05:10:37;;;;;;;12.30;2.13;;;;;;;5.69;73.23;99472.00;7389752;19;20022;-67
2023/12/22 05:13:05;;;;;;;13.15;2.92;;;;;;;5.60;74.25;99499.78;7390663;19;20491;-67
2023/12/22 05:15:32;;;;;;;9.93;1.92;;;;;;;5.65;73.81;99471.41;7396586;19;20685;-67
2023/12/22 05:18:00;;;;;;;10.55;2.30;;;;;;;5.73;72.95;99470.84;7397031;19;20015;-67
2023/12/22 05:20:29;;;;;;;11.40;2.28;;;;;;;5.73;72.30;99487.44;7394198;19;20041;-67
2023/12/22 05:22:56;;;;;;;14.70;2.30;;;;;;;5.81;71.75;99500.00;7396676;19;20111;-67
2023/12/22 05:25:24;;;;;;;8.57;1.58;;;;;;;5.76;70.76;99515.22;7395913;19;20011;-67
2023/12/22 05:27:52;;;;;;;12.68;2.00;;;;;;;5.75;70.05;99482.03;7397411;19;20117;-67
2023/12/22 05:30:20;;;;;;;12.93;2.45;;;;;;;5.78;70.24;99493.16;7393446;19;20035;-67
2023/12/22 05:32:48;;;;;;;12.70;1.98;;;;;;;5.76;69.36;99474.06;7396477;19;20039;-67
2023/12/22 05:35:16;;;;;;;10.73;1.98;;;;;;;5.78;70.03;99498.41;7395925;19;20035;-67
2023/12/22 05:37:44;;;;;;;11.38;2.28;;;;;;;5.90;69.49;99485.31;7396365;19;20040;-67
2023/12/22 05:40:12;;;;;;;11.65;1.98;;;;;;;5.92;69.95;99489.56;7393715;19;20051;-67
2023/12/22 05:42:40;;;;;;;13.55;2.15;;;;;;;5.92;69.85;99500.06;7396104;19;20019;-67
2023/12/22 05:45:10;;;;;;;10.70;2.60;;;;;;;5.92;70.52;99476.41;7396337;19;20047;-67
2023/12/22 05:47:38;;;;;;;13.48;2.63;;;;;;;5.92;70.63;99479.03;7396596;19;20039;-67
2023/12/22 05:50:07;;;;;;;12.98;2.03;;;;;;;5.84;70.40;99494.50;7393534;19;20507;-67
2023/12/22 05:52:35;;;;;;;11.50;2.35;;;;;;;5.76;70.64;99507.34;7395922;19;20362;-67
2023/12/22 05:55:04;;;;;;;9.15;2.13;;;;;;;5.74;70.59;99519.78;7395667;19;20510;-67
2023/12/22 05:57:36;;;;;;;10.38;1.67;;;;;;;5.63;71.42;99526.66;7396177;19;20331;-67
2023/12/22 06:00:07;;;;;;;5.47;1.50;;;;;;;5.67;71.34;99534.31;7393206;19;20112;-67
2023/12/22 06:02:35;;;;;;;5.45;1.05;;;;;;;5.67;70.61;99550.91;7395375;19;20078;-67
2023/12/22 06:05:03;;;;;;;7.57;1.50;;;;;;;5.69;70.30;99538.50;7391935;19;20030;-67
2023/12/22 06:07:31;;;;;;;8.63;1.75;;;;;;;5.78;70.50;99535.19;7395744;19;20026;-67
2023/12/22 06:09:59;;;;;;;8.20;1.58;;;;;;;5.80;70.85;99553.47;7392740;19;20141;-67
2023/12/22 06:12:28;;;;;;;9.45;1.67;;;;;;;5.82;71.24;99578.66;7394273;19;20029;-67
2023/12/22 06:14:56;;;;;;;11.45;1.52;;;;;;;5.71;71.61;99569.91;7395140;19;20025;-67
2023/12/22 06:17:24;;;;;;;8.80;1.65;;;;;;;5.56;73.13;99582.34;7393463;19;20371;-67
2023/12/22 06:19:51;;;;;;;10.70;1.40;;;;;;;5.47;73.31;99557.59;7392955;19;20086;-67
2023/12/22 06:22:20;;;;;;;6.95;1.10;;;;;;;5.41;73.08;99613.16;7395358;19;20015;-67
2023/12/22 06:24:48;;;;;;;7.28;1.50;;;;;;;5.38;73.46;99581.91;7393965;19;20032;-67
2023/12/22 06:27:16;;;;;;;6.55;1.00;;;;;;;5.34;73.64;99591.78;7393771;19;20029;-67
2023/12/22 06:29:44;;;;;;;8.05;1.23;;;;;;;5.31;73.93;99576.22;7391246;19;20027;-67
2023/12/22 06:32:12;;;;;;;5.60;1.10;;;;;;;5.32;73.93;99591.03;7395347;19;20022;-67
2023/12/22 06:34:40;;;;;;;6.25;0.98;;;;;;;5.41;74.44;99597.41;7392271;19;20038;-67
2023/12/22 06:37:08;;;;;;;6.15;1.13;;;;;;;5.30;75.24;99571.06;7392564;19;20034;-67
2023/12/22 06:39:35;;;;;;;9.20;1.70;;;;;;;5.38;75.00;99589.78;7395819;19;20018;-67
2023/12/22 06:42:05;;;;;;;10.30;1.63;;;;;;;5.35;74.90;99574.22;7392920;19;20015;-67
2023/12/22 06:44:33;;;;;;;7.68;1.30;;;;;;;5.25;74.95;99579.28;7394065;19;20022;-66
2023/12/22 06:47:01;;;;;;;12.32;2.03;;;;;;;5.24;74.67;99587.28;7394186;19;20019;-66
2023/12/22 06:49:29;;;;;;;12.20;2.03;;;;;;;5.26;74.55;99590.63;7392258;19;20051;-67
2023/12/22 06:51:57;;;;;;;11.05;1.98;;;;;;;5.30;74.75;99600.81;7394577;19;20362;-67
2023/12/22 06:54:25;;;;;;;13.63;2.00;;;;;;;5.35;75.07;99598.69;7393558;19;20018;-67
2023/12/22 06:56:53;;;;;;;10.13;1.95;;;;;;;5.39;74.81;99609.81;7390432;19;20022;-67
2023/12/22 06:59:21;;;;;;;8.20;1.70;;;;;;;5.44;74.85;99620.81;7391770;19;20030;-67
2023/12/22 07:01:50;;;;;;;13.13;2.00;;;;;;;5.49;75.50;99636.25;7393401;19;20006;-66
2023/12/22 07:05:08;;;;;;;6.22;1.38;;;;;;;5.44;76.59;99631.31;7394130;19;20086;-66
2023/12/22 07:07:36;;;;;;;11.68;1.60;;;;;;;5.43;77.05;99618.31;7393182;19;20021;-66
2023/12/22 07:10:05;;;;;;;9.05;1.70;;;;;;;5.41;77.34;99621.03;7391173;19;20018;-68
2023/12/22 07:12:32;;;;;;;8.60;1.55;;;;;;;5.23;77.81;99635.47;7394182;19;20014;-66
2023/12/22 07:15:00;;;;;;;11.55;1.98;;;;;;;5.16;78.24;99636.84;7393774;19;20010;-66
2023/12/22 07:17:29;;;;;;;12.10;2.50;;;;;;;5.21;77.78;99646.06;7391996;19;20039;-66
2023/12/22 07:19:57;;;;;;;12.90;2.30;;;;;;;5.35;77.23;99643.31;7390997;19;20026;-66
2023/12/22 07:22:26;;;;;;;16.23;2.83;;;;;;;5.42;76.96;99662.09;7393423;19;20385;-66
2023/12/22 07:24:55;;;;;;;21.95;3.95;;;;;;;5.53;76.81;99671.84;7392988;19;20019;-66
2023/12/22 07:27:25;;;;;;;15.60;2.55;;;;;;;5.48;76.51;99660.81;7392763;19;20011;-66
2023/12/22 07:29:55;;;;;;;15.27;2.75;;;;;;;5.59;76.43;99674.88;7390479;19;20077;-66
2023/12/22 07:32:23;;;;;;;16.38;2.90;;;;;;;5.63;76.64;99673.72;7392921;19;20082;-66
2023/12/22 07:34:50;;;;;;;15.73;3.00;;;;;;;5.65;76.52;99680.63;7392145;19;20516;-66
2023/12/22 07:37:18;;;;;;;15.55;3.33;;;;;;;5.65;76.17;99683.25;7388162;19;20085;-66
2023/12/22 07:39:47;;;;;;;22.10;5.18;;;;;;;5.63;76.03;99673.72;7393593;19;20026;-68
2023/12/22 07:42:15;;;;;;;21.80;4.28;;;;;;;5.78;75.82;99670.94;7392295;19;20026;-67
2023/12/22 07:44:43;;;;;;;22.63;4.90;;;;;;;5.84;75.68;99667.91;7392605;19;20018;-67
2023/12/22 07:47:11;;;;;;;25.90;4.43;;;;;;;5.86;74.72;99690.47;7391822;19;20527;-67
2023/12/22 07:49:39;;;;;;;21.25;5.03;;;;;;;5.95;75.14;99662.72;7390546;19;20082;-67
2023/12/22 07:52:07;;;;;;;21.40;4.22;;;;;;;5.99;74.30;99656.31;7392449;19;20022;-67
2023/12/22 07:54:36;;;;;;;20.92;3.92;;;;;;;5.98;72.83;99662.50;7392252;19;20022;-68
2023/12/22 07:57:05;;;;;;;17.23;4.13;;;;;;;5.96;72.77;99655.69;7390618;19;20360;-68
2023/12/22 07:59:32;;;;;;;22.20;4.50;;;;;;;5.95;72.63;99652.19;7389821;19;20029;-68
2023/12/22 08:02:00;;;;;;;19.30;5.20;;;;;;;5.94;72.99;99662.84;7391480;19;20035;-68
2023/12/22 08:04:29;;;;;;;27.52;5.40;;;;;;;5.97;72.75;99673.97;7391626;19;20022;-68
2023/12/22 08:06:57;;;;;;;20.65;5.38;;;;;;;6.01;72.34;99692.97;7392278;19;20035;-68
2023/12/22 08:09:25;;;;;;;22.02;4.90;;;;;;;6.04;72.30;99690.97;7390177;19;20019;-68
2023/12/22 08:11:53;;;;;;;22.02;4.13;;;;;;;6.04;71.29;99698.03;7391230;19;20042;-68
2023/12/22 08:14:21;;;;;;;23.45;4.45;;;;;;;6.16;70.77;99701.56;7391809;19;20025;-68
2023/12/22 08:16:51;;;;;;;22.35;4.68;;;;;;;6.28;70.35;99685.72;7389884;19;20037;-68
2023/12/22 08:19:19;;;;;;;21.67;4.10;;;;;;;6.29;70.36;99697.06;7386415;19;20042;-68
2023/12/22 08:21:47;;;;;;;19.60;3.83;;;;;;;6.33;69.48;99690.63;7388008;19;20022;-68
2023/12/22 08:24:18;;;;;;;21.00;5.50;;;;;;;6.38;68.72;99708.72;7387733;19;20052;-68
2023/12/22 08:26:50;;;;;;;16.48;3.70;;;;;;;6.33;69.09;99706.41;7389492;19;20483;-68
2023/12/22 08:29:21;;;;;;;15.95;2.58;;;;;;;6.34;68.67;99722.09;7389834;19;20471;-68
2023/12/22 08:31:49;;;;;;;15.45;2.95;;;;;;;6.51;68.13;99706.84;7391211;19;20018;-68
2023/12/22 08:34:17;;;;;;;20.48;2.88;;;;;;;6.43;70.38;99717.94;7389012;19;20023;-68
2023/12/22 08:36:45;;;;;;;18.85;3.38;;;;;;;6.29;72.89;99726.00;7390221;19;20022;-68
2023/12/22 08:39:13;;;;;;;17.23;2.90;;;;;;;6.18;73.71;99716.28;7389675;19;20043;-68
2023/12/22 08:41:42;;;;;;;16.25;3.00;;;;;;;6.39;73.33;99710.41;7390853;19;20511;-68
2023/12/22 08:44:11;;;;;;;18.30;3.75;;;;;;;6.19;73.92;99701.34;7391343;19;20026;-68
2023/12/22 08:46:39;;;;;;;19.63;3.67;;;;;;;6.09;74.78;99706.41;7391023;19;20032;-68
2023/12/22 08:49:07;;;;;;;17.27;3.17;;;;;;;6.09;74.26;99716.91;7390989;19;20026;-68
2023/12/22 08:51:35;;;;;;;21.00;3.58;;;;;;;6.16;74.17;99712.06;7398777;19;20029;-68
2023/12/22 08:54:06;;;;;;;16.15;3.10;;;;;;;6.29;74.17;99718.94;7397683;19;20022;-69
2023/12/22 08:56:35;;;;;;;16.80;3.63;;;;;;;6.33;73.98;99722.19;7397000;19;20019;-68
2023/12/22 08:59:03;;;;;;;25.70;4.82;;;;;;;6.41;73.46;99727.75;7394452;19;20030;-68
2023/12/22 09:01:31;;;;;;;22.27;4.82;;;;;;;6.50;72.15;99740.22;7398075;19;20019;-68
2023/12/22 09:03:59;;;;;;;25.05;4.60;;;;;;;6.49;71.96;99749.06;7397661;19;20027;-68
2023/12/22 09:06:27;;;;;;;21.73;4.13;;;;;;;6.53;72.41;99752.31;7397849;19;20373;-68
2023/12/22 09:08:55;;;;;;;23.38;4.65;;;;;;;6.54;72.14;99744.28;7394203;19;20287;-68
2023/12/22 09:11:23;;;;;;;21.33;4.03;;;;;;;6.52;72.47;99756.69;7397088;19;20337;-68
2023/12/22 09:13:51;;;;;;;13.13;2.70;;;;;;;6.44;72.25;99759.06;7398055;19;20022;-68
2023/12/22 09:16:22;;;;;;;10.80;2.13;;;;;;;6.41;70.86;99747.91;7396508;19;20014;-67
2023/12/22 09:18:51;;;;;;;7.18;1.98;;;;;;;6.41;71.00;99740.03;7395855;19;20037;-67
2023/12/22 09:21:19;;;;;;;11.18;1.67;;;;;;;6.28;70.49;99742.72;7397572;19;20042;-67
2023/12/22 09:23:47;;;;;;;6.32;1.30;;;;;;;6.30;70.44;99762.69;7397249;19;20086;-67
2023/12/22 09:26:16;;;;;;;6.43;1.38;;;;;;;6.27;70.47;99764.72;7396682;19;20014;-68
2023/12/22 09:28:44;;;;;;;6.95;1.20;;;;;;;6.20;70.42;99748.53;7395540;19;20018;-68
2023/12/22 09:31:12;;;;;;;8.68;1.40;;;;;;;6.30;70.81;99767.97;7396565;19;20127;-67
2023/12/22 09:33:41;;;;;;;6.22;1.48;;;;;;;6.26;70.67;99776.19;7396396;19;20031;-68
2023/12/22 09:36:10;;;;;;;8.98;1.30;;;;;;;6.23;70.96;99779.03;7396418;19;20475;-67
2023/12/22 09:38:38;;;;;;;7.90;1.58;;;;;;;6.26;71.00;99787.53;7393894;19;20376;-67
2023/12/22 09:41:06;;;;;;;8.65;1.60;;;;;;;6.26;71.08;99765.66;7395121;19;20471;-67
2023/12/22 09:43:38;;;;;;;11.57;2.00;;;;;;;6.27;71.70;99778.69;7395761;19;20019;-67
2023/12/22 09:46:07;;;;;;;8.82;1.90;;;;;;;6.26;71.77;99776.19;7394757;19;20114;-67
2023/12/22 09:48:39;;;;;;;11.55;2.03;;;;;;;6.27;72.20;99769.97;7395334;19;20452;-67
2023/12/22 09:51:07;;;;;;;10.13;1.70;;;;;;;6.27;72.26;99773.44;7396138;19;20019;-68
2023/12/22 09:53:38;;;;;;;8.32;1.70;;;;;;;6.23;72.75;99765.88;7394642;19;20018;-67
2023/12/22 09:56:07;;;;;;;12.35;1.85;;;;;;;6.10;73.26;99764.13;7394083;19;20021;-67
2023/12/22 09:58:36;;;;;;;10.20;1.90;;;;;;;6.19;73.18;99765.25;7392824;19;20014;-67
2023/12/22 10:01:07;;;;;;;15.80;2.22;;;;;;;6.17;73.63;99788.16;7393708;19;20035;-66
2023/12/22 10:03:37;;;;;;;10.10;2.00;;;;;;;6.18;73.85;99775.84;7394561;19;20030;-66
2023/12/22 10:06:05;;;;;;;8.50;1.67;;;;;;;6.16;74.51;99773.34;7396250;19;20023;-68
2023/12/22 10:08:35;;;;;;;8.13;1.73;;;;;;;6.20;74.56;99779.22;7392873;19;20039;-68
2023/12/22 10:11:04;;;;;;;13.18;1.90;;;;;;;6.19;75.22;99791.53;7395897;19;20026;-68
2023/12/22 10:13:35;;;;;;;13.73;1.73;;;;;;;6.19;75.78;99786.28;7395697;19;20024;-69
2023/12/22 10:16:06;;;;;;;9.82;1.65;;;;;;;6.12;76.39;99798.19;7398820;19;20019;-69
2023/12/22 10:18:34;;;;;;;9.18;1.88;;;;;;;6.07;76.85;99806.41;7390597;19;20104;-69
2023/12/22 10:21:02;;;;;;;10.15;1.80;;;;;;;6.02;77.22;99812.91;7395188;19;20015;-69
2023/12/22 10:23:30;;;;;;;9.90;1.70;;;;;;;5.94;77.62;99804.72;7395227;19;20099;-69
2023/12/22 10:25:58;;;;;;;13.73;1.83;;;;;;;5.91;77.77;99797.84;7395153;19;20019;-69
2023/12/22 10:28:29;;;;;;;9.85;1.55;;;;;;;5.97;77.79;99804.50;7393766;19;20018;-69
2023/12/22 10:31:03;;;;;;;6.53;1.60;;;;;;;5.81;78.12;99796.84;7393700;19;20042;-69
2023/12/22 10:33:32;;;;;;;11.88;2.00;;;;;;;5.82;78.29;99794.09;7393179;19;20015;-69
2023/12/22 10:36:02;;;;;;;12.63;1.75;;;;;;;5.88;78.32;99795.47;7395263;19;20270;-69
2023/12/22 10:38:34;;;;;;;8.70;2.40;;;;;;;5.99;77.76;99802.59;7391826;19;20341;-69
2023/12/22 10:41:03;;;;;;;11.27;1.92;;;;;;;5.95;77.88;99799.34;7394789;19;20011;-69
2023/12/22 10:43:40;;;;;;;8.93;2.05;;;;;;;5.95;77.98;99804.59;7393443;19;20043;-69
2023/12/22 10:46:10;;;;;;;11.43;2.05;;;;;;;5.91;78.51;99802.28;7394689;19;20116;-69
2023/12/22 10:48:40;;;;;;;9.77;1.92;;;;;;;6.01;78.37;99791.03;7393224;19;20733;-63
2023/12/22 10:51:10;;;;;;;11.40;1.67;;;;;;;6.01;78.13;99784.97;7393904;19;20042;-62
2023/12/22 10:53:41;;;;;;;11.32;2.28;;;;;;;6.07;78.10;99781.91;7393863;19;20367;-63
2023/12/22 10:56:11;;;;;;;11.48;2.10;;;;;;;6.14;77.99;99783.13;7394141;19;20673;-64
2023/12/22 10:58:39;;;;;;;11.27;2.67;;;;;;;6.13;78.05;99772.72;7391555;19;20030;-64
2023/12/22 11:01:09;;;;;;;10.27;2.38;;;;;;;6.24;77.66;99771.00;7393798;19;20344;-65
2023/12/22 11:03:39;;;;;;;9.88;2.20;;;;;;;6.27;77.75;99759.44;7394507;19;20015;-63
2023/12/22 11:06:10;;;;;;;13.35;2.20;;;;;;;6.30;77.91;99760.06;7394224;19;20018;-65
2023/12/22 11:08:42;;;;;;;11.02;2.13;;;;;;;6.39;77.84;99761.19;7390918;19;20030;-64
2023/12/22 11:11:25;;;;;;;12.68;2.20;;;;;;;6.52;77.68;99751.44;7393067;19;20014;-63
2023/12/22 11:13:54;;;;;;;10.90;1.98;;;;;;;6.58;77.46;99758.91;7393491;19;20039;-63
2023/12/22 11:16:24;;;;;;;11.95;2.10;;;;;;;6.70;76.99;99761.59;7392330;19;20015;-65
2023/12/22 11:18:57;;;;;;;12.00;2.30;;;;;;;6.64;77.57;99765.50;7388931;19;20202;-63
2023/12/22 11:21:26;;;;;;;8.63;2.17;;;;;;;6.72;77.65;99759.69;7391759;19;20035;-67
2023/12/22 11:23:54;;;;;;;11.43;2.17;;;;;;;6.74;77.57;99763.03;7393427;19;20028;-64
2023/12/22 11:26:23;;;;;;;13.38;3.05;;;;;;;6.76;77.82;99761.97;7393298;19;20039;-66
2023/12/22 11:28:52;;;;;;;13.95;3.13;;;;;;;6.76;77.85;99748.00;7391293;19;20035;-64
2023/12/22 11:31:23;;;;;;;11.55;2.50;;;;;;;6.77;78.08;99749.66;7391541;19;20085;-66
2023/12/22 11:33:51;;;;;;;13.25;2.78;;;;;;;6.84;77.83;99740.34;7393241;19;20026;-64
2023/12/22 11:36:31;;;;;;;13.57;3.28;;;;;;;6.86;77.86;99745.50;7392909;19;20072;-63
2023/12/22 11:39:02;;;;;;;12.90;4.10;;;;;;;6.97;77.58;99727.94;7390510;19;20085;-64
2023/12/22 11:41:35;;;;;;;24.02;6.93;;;;;;;6.98;77.69;99727.00;7391120;19;20011;-64
2023/12/22 11:44:05;;;;;;;26.88;8.85;;;;;;;7.01;77.71;99724.13;7393415;19;20022;-65